createdAt,value
2022-10-22T00:00:22.537Z,9.67
2022-10-22T00:10:44.446Z,8.99
2022-10-22T00:20:38.789Z,8.47
2022-10-22T00:30:48.117Z,7.51
2022-10-22T00:40:54.005Z,4.95
2022-10-22T00:51:03.044Z,4.3
2022-10-22T01:00:51.952Z,4.24
2022-10-22T01:11:12.908Z,4.06
2022-10-22T01:21:18.706Z,3.59
2022-10-22T01:31:14.989Z,3.59
2022-10-22T01:41:26.464Z,3.64
2022-10-22T01:51:15.505Z,4.51
2022-10-22T02:01:24.432Z,4.34
2022-10-22T02:11:33.441Z,4.57
2022-10-22T02:21:42.350Z,4.2
2022-10-22T02:31:51.237Z,4.39
2022-10-22T02:41:59.993Z,4.4
2022-10-22T02:52:08.951Z,3.99
2022-10-22T03:02:17.917Z,4.1
2022-10-22T03:12:27.036Z,4.78
2022-10-22T03:22:36.044Z,4.46
2022-10-22T03:32:44.975Z,4.7
2022-10-22T03:42:53.884Z,4.29
2022-10-22T03:53:02.765Z,4.48
2022-10-22T04:03:11.607Z,4.61
2022-10-22T04:13:20.468Z,4.23
2022-10-22T04:23:29.506Z,4.02
2022-10-22T04:33:38.457Z,4.04
2022-10-22T04:43:47.464Z,3.53
2022-10-22T04:53:56.339Z,4.01
2022-10-22T05:04:05.225Z,4.27
2022-10-22T05:14:14.029Z,3.96
2022-10-22T05:24:23.004Z,4.28
2022-10-22T05:34:31.930Z,4.2
2022-10-22T05:44:40.788Z,4.27
2022-10-22T05:54:55.884Z,3.65
2022-10-22T06:04:54.318Z,3.88
2022-10-22T06:15:03.358Z,3.13
2022-10-22T06:25:22.143Z,2.79
2022-10-22T06:35:21.153Z,3.04
2022-10-22T06:45:30.108Z,4.68
2022-10-22T06:55:40.233Z,5.47
2022-10-22T07:05:39.504Z,5.25
2022-10-22T07:15:48.739Z,19.19
2022-10-22T07:25:59.575Z,24.53
2022-10-22T07:35:58.403Z,44.71
2022-10-22T07:46:13.318Z,18.7
2022-10-22T07:56:12.168Z,10.68
2022-10-22T08:06:21.097Z,9.69
2022-10-22T08:16:30.020Z,19.12
2022-10-22T08:26:38.891Z,16.3
2022-10-22T08:36:47.788Z,6.42
2022-10-22T08:46:56.662Z,3.99
2022-10-22T08:57:05.433Z,3.02
2022-10-22T09:07:14.305Z,3.6
2022-10-22T09:17:23.136Z,2.89
2022-10-22T09:27:32.021Z,3.15
2022-10-22T09:37:40.964Z,3.76
2022-10-22T09:48:01.351Z,5.11
2022-10-22T09:57:58.331Z,3.93
2022-10-22T10:08:06.721Z,2.26
2022-10-22T10:18:15.612Z,2.29
2022-10-22T10:28:24.577Z,1.76
2022-10-22T10:38:32.101Z,2.92
2022-10-22T10:48:40.993Z,3.66
2022-10-22T10:58:49.933Z,2.64
2022-10-22T11:08:59.329Z,1.99
2022-10-22T11:19:08.559Z,1.64
2022-10-22T11:29:17.499Z,1.76
2022-10-22T11:39:26.391Z,0.76
2022-10-22T11:59:38.105Z,2.71
2022-10-22T12:09:48.589Z,2.22
2022-10-22T12:19:49.182Z,1.86
2022-10-22T12:29:50.321Z,2.01
2022-10-22T12:39:49.418Z,1.81
2022-10-22T13:30:15.072Z,1.25
2022-10-22T13:40:13.135Z,1.54
2022-10-22T13:50:22.551Z,1.24
2022-10-22T14:10:33.767Z,0.84
2022-10-22T14:20:42.981Z,0.89
2022-10-22T14:40:55.236Z,1.52
2022-10-22T15:11:08.667Z,1.33
2022-10-22T15:31:19.825Z,0.92
2022-10-22T15:41:28.730Z,1.04
2022-10-22T15:51:38.720Z,1.09
2022-10-22T16:01:48.676Z,1.23
2022-10-22T16:11:57.085Z,0.94
2022-10-22T16:22:06.030Z,1.42
2022-10-22T16:32:14.812Z,1.03
2022-10-22T16:42:23.657Z,1.2
2022-10-22T16:52:32.853Z,0.97
2022-10-22T17:02:42.534Z,1.1
2022-10-22T17:12:52.523Z,1.16
2022-10-22T17:22:51.332Z,1.23
2022-10-22T17:33:00.263Z,1.27
2022-10-22T17:43:09.083Z,1.52
2022-10-22T17:53:18.811Z,1.11
2022-10-22T18:03:19.118Z,1.78
2022-10-22T18:13:18.142Z,2.08
2022-10-22T18:23:29.098Z,1.66
2022-10-22T18:33:36.053Z,1.67
2022-10-22T18:43:45.103Z,2.09
2022-10-22T18:53:59.285Z,2.39
2022-10-22T19:04:03.746Z,3.52
2022-10-22T19:14:13.896Z,2.79
2022-10-22T19:24:21.186Z,2.95
2022-10-22T19:34:22.897Z,4.11
2022-10-22T19:44:24.065Z,4.47
2022-10-22T19:54:23.448Z,5.1
2022-10-22T20:04:33.547Z,2.74
2022-10-22T20:14:34.206Z,3.4
2022-10-22T20:24:33.636Z,2.69
2022-10-22T20:34:44.172Z,4.25
2022-10-22T20:44:42.848Z,2.57
2022-10-22T20:54:53.413Z,3.05
2022-10-22T21:04:51.446Z,3.28
2022-10-22T21:15:03.792Z,2.98
2022-10-22T21:25:02.312Z,2.94
2022-10-22T21:35:11.248Z,2.71
2022-10-22T21:45:21.466Z,2.31
2022-10-22T21:55:27.398Z,2.66
2022-10-22T22:05:39.103Z,3.33
2022-10-22T22:15:38.558Z,3.45
2022-10-22T22:25:48.317Z,3.74
2022-10-22T22:35:57.333Z,3.2
2022-10-22T22:46:06.231Z,3.23
2022-10-22T22:56:15.250Z,3.69
2022-10-22T23:06:29.300Z,4.12
2022-10-22T23:16:28.306Z,4.3
2022-10-22T23:26:37.310Z,3.59
2022-10-22T23:36:46.275Z,4.46
2022-10-22T23:46:55.287Z,4.1
2022-10-22T23:57:04.239Z,4.31
